Time;durP1;ratioP1;P1;durP2;ratioP2;P2;SDS_P1;SDS_P2;PMS_P1;PMS_P2;Temp;Humidity;BMP_temperature;BMP_pressure;BME280_temperature;BME280_humidity;BME280_pressure;Samples;Min_cycle;Max_cycle;Signal;HPM_P1;HPM_P2
2023/08/22 00:00:30;;;;;;;2.37;1.93;;;;;;;24.70;73.77;95819.75;4307977;33;20189;-60
2023/08/22 00:02:58;;;;;;;2.43;2.33;;;;;;;24.70;73.71;95819.75;4316562;32;20181;-59
2023/08/22 00:05:28;;;;;;;1.87;1.87;;;;;;;24.65;74.03;95812.72;4302788;33;20186;-59
2023/08/22 00:07:59;;;;;;;1.60;1.60;;;;;;;24.60;74.48;95808.41;4305668;32;20201;-60
2023/08/22 00:10:27;;;;;;;2.53;2.43;;;;;;;24.60;74.50;95802.19;4311973;33;20201;-59
2023/08/22 00:12:54;;;;;;;1.67;1.57;;;;;;;24.62;74.28;95803.38;4334690;32;20181;-59
2023/08/22 00:15:21;;;;;;;2.23;2.17;;;;;;;24.60;74.27;95800.25;4335243;32;20204;-60
2023/08/22 00:17:51;;;;;;;2.00;1.90;;;;;;;24.61;74.23;95801.03;4338034;32;20192;-59
2023/08/22 00:20:22;;;;;;;1.50;1.50;;;;;;;24.59;74.18;95798.69;4341242;32;20205;-59
2023/08/22 00:22:52;;;;;;;3.00;2.77;;;;;;;24.54;74.46;95800.94;4333546;32;20196;-60
2023/08/22 00:25:19;;;;;;;2.50;2.40;;;;;;;24.51;74.28;95807.94;4319057;32;20190;-59
2023/08/22 00:27:44;;;;;;;3.20;2.43;;;;;;;24.55;74.24;95806.00;4314370;33;20178;-59
2023/08/22 00:30:11;;;;;;;2.60;2.43;;;;;;;24.50;74.25;95803.66;4341163;32;20186;-59
2023/08/22 00:32:38;;;;;;;1.73;1.63;;;;;;;24.53;74.46;95811.03;4322926;32;20279;-59
2023/08/22 00:35:07;;;;;;;2.53;2.43;;;;;;;24.51;74.39;95807.16;4344146;32;20205;-59
2023/08/22 00:37:33;;;;;;;2.13;2.03;;;;;;;24.53;74.36;95802.09;4312549;32;20205;-59
2023/08/22 00:40:00;;;;;;;3.37;2.87;;;;;;;24.54;74.45;95804.44;4325412;32;20212;-59
2023/08/22 00:42:27;;;;;;;1.90;1.80;;;;;;;24.53;74.46;95802.88;4291910;32;20358;-60
2023/08/22 00:44:54;;;;;;;1.80;1.67;;;;;;;24.53;74.58;95797.47;4326945;32;20198;-59
2023/08/22 00:47:34;;;;;;;6.50;2.33;;;;;;;24.51;74.27;95802.50;4320254;32;20200;-59
2023/08/22 00:50:02;;;;;;;2.07;1.97;;;;;;;24.51;74.43;95805.22;4307072;32;20193;-59
2023/08/22 00:52:29;;;;;;;1.40;1.40;;;;;;;24.49;73.79;95804.81;4298638;32;20222;-59
2023/08/22 00:54:59;;;;;;;2.60;2.17;;;;;;;24.47;73.65;95803.59;4332411;32;20186;-59
2023/08/22 00:57:24;;;;;;;2.33;1.73;;;;;;;24.45;73.85;95787.69;4314779;32;20189;-59
2023/08/22 00:59:56;;;;;;;2.63;1.13;;;;;;;24.48;73.96;95797.81;4273831;33;20187;-60
2023/08/22 01:02:23;;;;;;;1.60;1.50;;;;;;;24.42;72.94;95791.16;4329024;32;20223;-59
2023/08/22 01:04:49;;;;;;;1.97;1.60;;;;;;;24.48;73.48;95786.97;4344963;32;20207;-60
2023/08/22 01:07:33;;;;;;;1.63;1.63;;;;;;;24.46;72.99;95789.25;4306425;32;20182;-59
2023/08/22 01:10:28;;;;;;;2.27;2.17;;;;;;;24.46;73.78;95786.56;4324996;32;20193;-59
2023/08/22 01:13:33;;;;;;;2.13;2.03;;;;;;;24.45;73.49;95782.28;4334380;32;20228;-59
2023/08/22 01:16:01;;;;;;;1.37;1.30;;;;;;;24.43;73.29;95786.50;4282805;33;20201;-59
2023/08/22 01:18:30;;;;;;;5.50;2.07;;;;;;;24.42;73.09;95780.28;4310529;32;20251;-59
2023/08/22 01:21:07;;;;;;;1.37;1.37;;;;;;;24.41;72.75;95786.09;4336468;32;20209;-59
2023/08/22 01:23:36;;;;;;;1.43;1.43;;;;;;;24.36;72.63;95786.41;4317498;32;20192;-59
2023/08/22 01:26:01;;;;;;;1.57;1.57;;;;;;;24.32;72.66;95780.94;4326504;32;20185;-59
2023/08/22 01:28:45;;;;;;;1.70;1.67;;;;;;;24.34;72.80;95778.66;4335541;32;20181;-59
2023/08/22 01:31:21;;;;;;;2.07;1.93;;;;;;;24.33;72.89;95782.50;4286179;33;20185;-59
2023/08/22 01:33:59;;;;;;;1.37;1.37;;;;;;;24.32;72.58;95784.44;4295528;33;20244;-60
2023/08/22 01:36:26;;;;;;;2.87;2.67;;;;;;;24.33;72.68;95772.44;4338263;32;20260;-59
2023/08/22 01:38:53;;;;;;;1.90;1.83;;;;;;;24.34;72.54;95770.50;4329479;32;20245;-59
2023/08/22 01:41:21;;;;;;;2.07;1.97;;;;;;;24.34;72.86;95781.34;4298725;33;20190;-59
2023/08/22 01:43:49;;;;;;;2.03;1.80;;;;;;;24.33;73.33;95779.78;4289990;33;20202;-59
2023/08/22 01:46:16;;;;;;;1.33;1.23;;;;;;;24.26;72.89;95777.03;4314670;32;20182;-59
2023/08/22 01:48:43;;;;;;;1.77;1.77;;;;;;;24.30;73.30;95777.84;4322115;32;20181;-59
2023/08/22 01:51:11;;;;;;;2.10;1.97;;;;;;;24.27;73.13;95776.66;4328917;32;20200;-62
2023/08/22 01:53:37;;;;;;;1.73;1.73;;;;;;;24.23;72.72;95775.78;4331643;32;20299;-59
2023/08/22 01:56:04;;;;;;;1.30;1.30;;;;;;;24.24;73.35;95773.91;4352505;32;20185;-59
2023/08/22 01:58:31;;;;;;;1.60;1.50;;;;;;;24.24;73.32;95776.59;4344482;32;20182;-59
2023/08/22 02:00:57;;;;;;;1.60;1.60;;;;;;;24.25;73.61;95775.44;4320083;32;20209;-59
2023/08/22 02:03:25;;;;;;;1.37;1.37;;;;;;;24.23;73.56;95772.31;4324496;32;20197;-59
2023/08/22 02:05:53;;;;;;;2.23;2.13;;;;;;;24.20;73.57;95773.81;4295454;32;20182;-60
2023/08/22 02:08:18;;;;;;;2.20;2.10;;;;;;;24.18;73.42;95775.34;4283559;33;20213;-60
2023/08/22 02:10:45;;;;;;;2.70;2.50;;;;;;;24.16;73.69;95777.63;4314051;32;20275;-59
2023/08/22 02:13:11;;;;;;;1.50;1.50;;;;;;;24.15;73.52;95774.12;4328643;32;20189;-59
2023/08/22 02:15:36;;;;;;;2.00;1.90;;;;;;;24.13;73.68;95764.81;4308808;33;20275;-59
2023/08/22 02:18:03;;;;;;;1.50;1.40;;;;;;;24.14;73.87;95774.50;4329870;32;20189;-59
2023/08/22 02:20:31;;;;;;;1.20;1.20;;;;;;;24.14;74.12;95767.16;4315651;32;20181;-59
2023/08/22 02:23:02;;;;;;;1.90;1.67;;;;;;;24.15;73.64;95763.28;4321133;32;20235;-59
2023/08/22 02:25:27;;;;;;;1.70;1.47;;;;;;;24.14;73.81;95767.16;4308453;33;20219;-59
2023/08/22 02:27:54;;;;;;;1.47;1.47;;;;;;;24.15;73.69;95767.94;4328656;33;20204;-59
2023/08/22 02:30:20;;;;;;;1.17;1.17;;;;;;;24.13;73.60;95759.38;4291567;32;20245;-59
2023/08/22 02:32:56;;;;;;;2.03;1.90;;;;;;;24.12;73.63;95757.81;4286004;32;20190;-59
2023/08/22 02:35:23;;;;;;;2.00;1.90;;;;;;;24.11;73.74;95746.19;4324025;32;20192;-60
2023/08/22 02:37:49;;;;;;;4.60;1.73;;;;;;;24.10;73.94;95744.66;4331458;32;20209;-59
2023/08/22 02:40:16;;;;;;;1.40;1.40;;;;;;;24.09;73.58;95745.03;4319529;33;20200;-59
2023/08/22 02:42:42;;;;;;;1.97;1.77;;;;;;;24.06;73.57;95743.81;4330334;32;20239;-59
2023/08/22 02:45:09;;;;;;;1.70;1.70;;;;;;;24.07;73.79;95739.19;4326234;32;20189;-59
2023/08/22 02:47:36;;;;;;;1.57;1.57;;;;;;;24.06;73.86;95743.81;4312664;33;20312;-59
2023/08/22 02:50:01;;;;;;;2.30;2.20;;;;;;;24.07;73.91;95728.34;4318666;33;20206;-60
2023/08/22 02:52:29;;;;;;;1.27;1.27;;;;;;;24.07;73.59;95737.25;4322328;32;20239;-59
2023/08/22 02:54:55;;;;;;;1.30;1.30;;;;;;;24.08;73.54;95735.31;4338347;32;20208;-60
2023/08/22 02:57:22;;;;;;;1.37;1.37;;;;;;;24.02;73.23;95742.22;4322261;33;20182;-59
2023/08/22 02:59:48;;;;;;;2.87;1.67;;;;;;;24.02;73.39;95736.78;4301441;33;20304;-59
2023/08/22 03:02:14;;;;;;;1.23;1.10;;;;;;;24.02;73.76;95743.00;4329702;32;20232;-59
2023/08/22 03:04:39;;;;;;;2.37;2.27;;;;;;;23.99;73.09;95739.09;4295677;33;20218;-59
2023/08/22 03:07:08;;;;;;;1.17;1.17;;;;;;;24.01;73.59;95741.44;4298761;33;20201;-59
2023/08/22 03:09:40;;;;;;;1.53;1.47;;;;;;;24.02;73.83;95747.63;4306400;33;20268;-59
2023/08/22 03:12:10;;;;;;;1.20;1.20;;;;;;;24.01;73.39;95746.84;4321939;32;20245;-59
2023/08/22 03:14:37;;;;;;;1.20;1.20;;;;;;;23.98;73.57;95737.53;4308165;32;20213;-59
2023/08/22 03:17:02;;;;;;;2.20;2.00;;;;;;;23.96;73.67;95745.25;4324963;32;20264;-59
2023/08/22 03:19:28;;;;;;;14.53;1.90;;;;;;;23.95;73.47;95737.47;4325005;33;20200;-59
2023/08/22 03:21:56;;;;;;;1.77;1.67;;;;;;;23.86;72.60;95737.00;4337029;32;20211;-59
2023/08/22 03:24:22;;;;;;;2.43;2.30;;;;;;;23.90;73.29;95741.28;4339295;32;20181;-59
2023/08/22 03:26:49;;;;;;;1.43;1.43;;;;;;;23.87;73.32;95735.84;4309753;33;20201;-59
2023/08/22 03:29:16;;;;;;;1.47;1.47;;;;;;;23.84;73.32;95736.59;4328418;32;20205;-59
2023/08/22 03:31:42;;;;;;;1.77;1.67;;;;;;;23.85;73.67;95733.50;4283149;33;20209;-58
2023/08/22 03:34:08;;;;;;;1.67;1.57;;;;;;;23.83;73.49;95743.94;4330916;32;20210;-59
2023/08/22 03:36:34;;;;;;;1.67;1.57;;;;;;;23.83;73.26;95741.22;4315446;32;20185;-60
2023/08/22 03:39:01;;;;;;;1.80;1.70;;;;;;;23.80;73.13;95739.25;4344043;32;20225;-59
2023/08/22 03:41:28;;;;;;;1.57;1.57;;;;;;;23.77;72.96;95745.41;4290354;33;20186;-59
2023/08/22 03:44:00;;;;;;;1.20;1.20;;;;;;;23.74;73.01;95743.41;4313298;32;20210;-59
2023/08/22 03:46:28;;;;;;;1.53;1.53;;;;;;;23.76;73.03;95740.34;4313374;32;20218;-59
2023/08/22 03:48:56;;;;;;;1.87;1.77;;;;;;;23.76;73.20;95743.03;4283636;33;20190;-60
2023/08/22 03:51:22;;;;;;;1.20;1.20;;;;;;;23.74;73.36;95742.63;4317590;32;20184;-59
2023/08/22 03:53:48;;;;;;;1.03;1.03;;;;;;;23.72;73.35;95745.72;4311902;32;20190;-59
2023/08/22 03:56:14;;;;;;;1.27;1.27;;;;;;;23.72;73.45;95743.00;4329015;32;20212;-59
2023/08/22 03:58:41;;;;;;;1.67;1.57;;;;;;;23.74;73.98;95743.41;4327861;32;20268;-59
2023/08/22 04:01:07;;;;;;;2.07;1.73;;;;;;;23.74;73.56;95748.06;4336461;32;20196;-59
2023/08/22 04:03:34;;;;;;;0.73;0.73;;;;;;;23.68;73.23;95755.75;4340532;32;20225;-60
2023/08/22 04:06:03;;;;;;;1.40;1.40;;;;;;;23.69;73.56;95757.31;4308063;33;20249;-59
2023/08/22 04:08:30;;;;;;;3.07;2.07;;;;;;;23.68;73.37;95761.16;4322556;32;20207;-59
2023/08/22 04:10:58;;;;;;;1.60;1.60;;;;;;;23.61;73.37;95756.41;4312593;32;20203;-59
2023/08/22 04:13:24;;;;;;;1.27;1.27;;;;;;;23.59;74.03;95766.06;4318068;33;20245;-59
2023/08/22 04:15:51;;;;;;;1.53;1.53;;;;;;;23.63;73.79;95764.97;4310899;32;20241;-59
2023/08/22 04:18:23;;;;;;;2.40;1.73;;;;;;;23.57;73.27;95766.41;4334709;33;20186;-59
2023/08/22 04:20:49;;;;;;;1.13;1.13;;;;;;;23.63;73.96;95769.59;4302692;32;20194;-61
2023/08/22 04:23:15;;;;;;;1.90;1.80;;;;;;;23.63;73.63;95764.19;4308542;32;20286;-60
2023/08/22 04:25:40;;;;;;;1.43;1.40;;;;;;;23.63;73.36;95769.59;4312294;33;20194;-59
2023/08/22 04:28:08;;;;;;;2.00;1.87;;;;;;;23.66;73.82;95765.38;4306134;32;20286;-59
2023/08/22 04:30:37;;;;;;;2.20;2.10;;;;;;;23.64;73.79;95763.03;4271760;33;20269;-59
2023/08/22 04:33:03;;;;;;;1.47;1.47;;;;;;;23.62;73.87;95770.75;4335018;32;20207;-60
2023/08/22 04:35:32;;;;;;;1.60;1.60;;;;;;;23.60;73.78;95767.62;4310518;32;20257;-59
2023/08/22 04:38:00;;;;;;;0.70;0.70;;;;;;;23.56;73.72;95774.91;4303433;33;20248;-60
2023/08/22 04:40:26;;;;;;;2.30;2.20;;;;;;;23.60;73.72;95775.75;4330307;32;20196;-60
2023/08/22 04:42:51;;;;;;;1.67;1.57;;;;;;;23.57;73.92;95777.25;4316178;32;20215;-59
2023/08/22 04:45:19;;;;;;;1.70;1.63;;;;;;;23.49;73.74;95775.53;4310739;33;20292;-59
2023/08/22 04:47:45;;;;;;;2.27;1.40;;;;;;;23.53;74.01;95781.84;4318868;32;20189;-59
2023/08/22 04:50:12;;;;;;;6.83;2.03;;;;;;;23.53;74.17;95781.84;4329221;32;20200;-59
2023/08/22 04:52:40;;;;;;;1.47;1.43;;;;;;;23.56;74.31;95780.31;4331218;32;20252;-59
2023/08/22 04:55:09;;;;;;;2.37;2.27;;;;;;;23.57;74.31;95781.88;4311530;33;20212;-59
2023/08/22 04:57:34;;;;;;;1.50;1.43;;;;;;;23.50;74.44;95777.09;4315678;32;20206;-59
2023/08/22 05:00:03;;;;;;;1.70;1.60;;;;;;;23.55;74.35;95778.75;4295714;33;20260;-59
2023/08/22 05:02:30;;;;;;;2.80;1.73;;;;;;;23.53;74.07;95770.22;4343398;32;20200;-59
2023/08/22 05:04:56;;;;;;;1.40;1.40;;;;;;;23.55;74.29;95767.91;4332796;32;20228;-59
2023/08/22 05:07:24;;;;;;;1.80;1.80;;;;;;;23.56;74.33;95766.78;4340204;32;20193;-59
2023/08/22 05:09:49;;;;;;;2.00;1.90;;;;;;;23.57;74.33;95760.22;4301351;32;20201;-59
2023/08/22 05:12:14;;;;;;;3.70;1.80;;;;;;;23.57;74.21;95773.75;4318214;33;20208;-59
2023/08/22 05:14:42;;;;;;;4.00;1.67;;;;;;;23.52;73.95;95766.72;4321234;32;20208;-59
2023/08/22 05:17:08;;;;;;;1.37;1.37;;;;;;;23.45;73.74;95763.91;4324053;32;20289;-59
2023/08/22 05:19:34;;;;;;;1.83;1.83;;;;;;;23.50;74.25;95771.69;4315630;33;20192;-59
2023/08/22 05:22:01;;;;;;;1.67;1.57;;;;;;;23.52;73.93;95768.66;4314926;32;20257;-60
2023/08/22 05:24:28;;;;;;;1.47;1.47;;;;;;;23.54;73.72;95771.78;4306860;32;20233;-60
2023/08/22 05:26:55;;;;;;;2.00;2.00;;;;;;;23.52;73.81;95769.44;4328068;32;20190;-64
2023/08/22 05:29:27;;;;;;;1.70;1.60;;;;;;;23.53;73.77;95772.91;4292522;33;20189;-63
2023/08/22 05:32:00;;;;;;;4.73;2.53;;;;;;;23.60;74.01;95775.75;4325499;32;20208;-64
2023/08/22 05:34:26;;;;;;;2.77;2.17;;;;;;;23.56;73.68;95777.63;4319780;32;20182;-64
2023/08/22 05:36:52;;;;;;;1.73;1.50;;;;;;;23.48;73.99;95767.81;4331899;32;20185;-64
2023/08/22 05:39:18;;;;;;;2.40;2.00;;;;;;;23.51;74.47;95777.87;4317764;32;20244;-61
2023/08/22 05:41:44;;;;;;;1.97;1.87;;;;;;;23.54;74.59;95772.56;4328047;32;20247;-64
2023/08/22 05:44:10;;;;;;;3.00;2.50;;;;;;;23.49;74.60;95774.75;4322469;32;20239;-64
2023/08/22 05:46:35;;;;;;;2.90;2.53;;;;;;;23.52;74.73;95780.28;4328881;32;20177;-64
2023/08/22 05:49:02;;;;;;;1.33;1.33;;;;;;;23.50;74.85;95770.91;4308210;32;20211;-64
2023/08/22 05:51:29;;;;;;;1.43;1.20;;;;;;;23.55;74.53;95773.34;4321517;32;20344;-64
2023/08/22 05:53:59;;;;;;;2.63;2.53;;;;;;;23.54;74.91;95777.97;4321641;32;20197;-64
2023/08/22 05:56:26;;;;;;;1.80;1.70;;;;;;;23.60;75.01;95770.31;4333937;32;20193;-64
2023/08/22 05:58:53;;;;;;;2.30;2.20;;;;;;;23.65;74.75;95775.44;4331776;32;20205;-64
2023/08/22 06:01:21;;;;;;;2.37;2.27;;;;;;;23.66;74.33;95778.94;4330942;32;20212;-64
2023/08/22 06:03:47;;;;;;;2.10;2.00;;;;;;;23.65;74.13;95783.56;4343516;32;20190;-65
2023/08/22 06:06:12;;;;;;;1.33;1.23;;;;;;;23.63;74.11;95781.22;4292113;33;20246;-64
2023/08/22 06:08:40;;;;;;;1.70;1.70;;;;;;;23.65;74.31;95783.56;4294113;33;20212;-64
2023/08/22 06:11:06;;;;;;;3.17;2.97;;;;;;;23.74;75.42;95781.34;4329373;32;20189;-65
2023/08/22 06:13:31;;;;;;;1.63;1.53;;;;;;;23.74;75.24;95792.19;4321243;32;20201;-65
2023/08/22 06:15:58;;;;;;;2.00;1.93;;;;;;;23.73;74.85;95785.22;4315274;32;20221;-65
2023/08/22 06:18:25;;;;;;;2.27;2.10;;;;;;;23.75;74.45;95787.56;4310575;33;20182;-64
2023/08/22 06:21:02;;;;;;;1.73;1.63;;;;;;;23.72;73.83;95786.34;4314157;33;20205;-64
2023/08/22 06:23:30;;;;;;;1.70;1.60;;;;;;;23.76;74.23;95789.91;4325898;32;20249;-65
2023/08/22 06:25:57;;;;;;;2.27;2.17;;;;;;;23.79;74.04;95799.22;4325362;32;20228;-65
2023/08/22 06:28:23;;;;;;;2.10;1.87;;;;;;;23.80;74.53;95790.72;4299730;33;20189;-64
2023/08/22 06:30:49;;;;;;;1.50;1.50;;;;;;;23.81;74.47;95796.94;4331333;32;20208;-63
2023/08/22 06:33:16;;;;;;;2.17;2.07;;;;;;;23.80;74.43;95793.44;4338322;32;20264;-64
2023/08/22 06:35:47;;;;;;;2.93;2.03;;;;;;;23.87;74.04;95790.84;4314190;32;20236;-65
2023/08/22 06:38:12;;;;;;;1.93;1.93;;;;;;;23.86;75.14;95797.41;4321968;32;20260;-65
2023/08/22 06:40:45;;;;;;;1.83;1.73;;;;;;;23.88;74.22;95789.69;4314706;32;20269;-64
2023/08/22 06:43:12;;;;;;;2.13;2.03;;;;;;;23.90;74.59;95792.78;4307302;33;20261;-64
2023/08/22 06:45:38;;;;;;;2.20;2.07;;;;;;;23.92;74.97;95792.44;4328482;32;20231;-64
2023/08/22 06:48:07;;;;;;;3.53;2.90;;;;;;;23.95;74.50;95792.47;4330903;32;20200;-64
2023/08/22 06:50:34;;;;;;;2.30;2.17;;;;;;;23.96;75.09;95788.63;4304051;33;20197;-65
2023/08/22 06:53:02;;;;;;;2.00;1.90;;;;;;;24.02;74.62;95788.31;4276033;33;20198;-65
2023/08/22 06:55:28;;;;;;;3.57;2.87;;;;;;;24.06;74.57;95789.91;4287015;32;20214;-64
2023/08/22 06:57:56;;;;;;;2.17;2.07;;;;;;;24.11;74.31;95789.56;4274592;33;20258;-64
2023/08/22 07:00:22;;;;;;;1.30;1.30;;;;;;;24.18;73.83;95788.88;4285765;33;20193;-64
2023/08/22 07:02:49;;;;;;;5.67;1.93;;;;;;;24.25;73.72;95794.44;4323462;33;20187;-63
2023/08/22 07:05:15;;;;;;;1.53;1.53;;;;;;;24.28;73.68;95782.84;4338238;32;20189;-65
2023/08/22 07:07:41;;;;;;;1.80;1.73;;;;;;;24.33;73.60;95793.34;4320993;32;20234;-65
2023/08/22 07:10:10;;;;;;;2.30;1.93;;;;;;;24.34;74.25;95789.50;4329186;32;20235;-65
2023/08/22 07:12:39;;;;;;;2.07;1.80;;;;;;;24.36;74.39;95792.63;4311611;32;20186;-65
2023/08/22 07:15:09;;;;;;;2.93;2.57;;;;;;;24.43;73.49;95784.56;4341154;32;20204;-65
2023/08/22 07:17:35;;;;;;;1.73;1.73;;;;;;;24.51;73.25;95788.16;4296912;32;20204;-65
2023/08/22 07:20:03;;;;;;;3.30;2.60;;;;;;;24.54;73.45;95790.88;4312265;32;20271;-65
2023/08/22 07:22:28;;;;;;;2.13;2.03;;;;;;;24.60;73.12;95794.84;4314844;33;20201;-65
2023/08/22 07:24:55;;;;;;;2.00;1.90;;;;;;;24.70;73.06;95789.91;4314331;32;20185;-64
2023/08/22 07:27:21;;;;;;;2.53;2.37;;;;;;;24.72;73.08;95791.09;4325614;32;20193;-62
2023/08/22 07:29:48;;;;;;;2.50;2.40;;;;;;;24.77;72.55;95788.00;4315021;32;20193;-65
2023/08/22 07:32:15;;;;;;;2.23;2.13;;;;;;;24.73;72.74;95787.22;4321830;32;20209;-65
2023/08/22 07:34:41;;;;;;;2.43;2.33;;;;;;;24.84;71.96;95790.03;4304121;32;20296;-65
2023/08/22 07:37:08;;;;;;;6.13;2.57;;;;;;;24.85;71.98;95791.59;4305405;32;20264;-65
2023/08/22 07:39:34;;;;;;;3.67;3.23;;;;;;;24.94;71.03;95794.78;4318919;32;20201;-65
2023/08/22 07:42:01;;;;;;;2.23;2.07;;;;;;;24.88;71.57;95791.63;4334064;32;20323;-65
2023/08/22 07:44:28;;;;;;;27.17;3.20;;;;;;;24.98;70.96;95801.03;4300680;33;20205;-65
2023/08/22 07:46:54;;;;;;;1.87;1.80;;;;;;;25.12;70.10;95798.47;4310158;32;20261;-65
2023/08/22 07:49:20;;;;;;;2.67;2.53;;;;;;;25.21;70.06;95803.56;4333886;32;20193;-64
2023/08/22 07:51:46;;;;;;;2.90;2.67;;;;;;;25.25;69.46;95799.75;4322418;32;20243;-65
2023/08/22 07:54:13;;;;;;;1.93;1.87;;;;;;;25.30;69.26;95807.56;4315730;32;20190;-65
2023/08/22 07:56:40;;;;;;;2.30;2.20;;;;;;;25.47;67.87;95802.63;4328182;32;20189;-65
2023/08/22 07:59:06;;;;;;;2.97;2.87;;;;;;;25.50;68.81;95801.87;4292869;33;20244;-64
2023/08/22 08:01:35;;;;;;;2.50;2.30;;;;;;;25.55;68.21;95794.16;4325132;32;20193;-65
2023/08/22 08:04:03;;;;;;;2.13;2.03;;;;;;;25.56;68.10;95800.38;4284316;32;20206;-65
2023/08/22 08:06:33;;;;;;;1.77;1.67;;;;;;;25.72;66.89;95802.81;4314408;32;20185;-65
2023/08/22 08:09:00;;;;;;;1.43;1.37;;;;;;;25.75;66.99;95799.34;4286280;32;20217;-65
2023/08/22 08:11:32;;;;;;;2.57;2.37;;;;;;;25.90;66.11;95806.44;4288306;32;20224;-65
2023/08/22 08:14:07;;;;;;;3.07;2.87;;;;;;;25.94;66.32;95804.50;4259009;32;20199;-65
2023/08/22 08:16:35;;;;;;;5.60;1.97;;;;;;;25.93;66.30;95805.66;4304046;32;20208;-65
2023/08/22 08:19:04;;;;;;;1.80;1.60;;;;;;;25.99;65.75;95804.13;4328747;32;20257;-65
2023/08/22 08:21:30;;;;;;;2.13;2.03;;;;;;;26.07;65.31;95802.25;4337262;32;20185;-65
2023/08/22 08:23:57;;;;;;;6.00;2.83;;;;;;;26.10;65.34;95798.75;4305609;33;20178;-65
2023/08/22 08:26:23;;;;;;;1.80;1.80;;;;;;;26.08;66.28;95803.78;4323496;32;20203;-65
2023/08/22 08:28:50;;;;;;;3.43;2.33;;;;;;;26.11;65.98;95808.47;4331061;32;20201;-64
2023/08/22 08:31:15;;;;;;;2.70;2.60;;;;;;;26.13;66.51;95808.87;4326311;32;20190;-65
2023/08/22 08:33:44;;;;;;;2.87;2.67;;;;;;;26.26;65.83;95799.22;4322753;32;20221;-65
2023/08/22 08:36:12;;;;;;;1.83;1.83;;;;;;;26.39;65.64;95800.47;4331062;32;20189;-65
2023/08/22 08:38:38;;;;;;;1.47;1.47;;;;;;;26.42;65.87;95798.91;4343451;32;20306;-65
2023/08/22 08:41:07;;;;;;;2.27;2.17;;;;;;;26.45;65.65;95796.19;4325915;32;20201;-65
2023/08/22 08:43:34;;;;;;;1.67;1.57;;;;;;;26.48;65.48;95794.66;4323469;32;20220;-65
2023/08/22 08:46:02;;;;;;;1.93;1.83;;;;;;;26.52;65.37;95796.25;4292416;32;20261;-65
2023/08/22 08:48:29;;;;;;;4.27;3.83;;;;;;;26.58;65.53;95791.97;4274530;32;20237;-66
2023/08/22 08:51:02;;;;;;;2.37;2.27;;;;;;;26.42;65.28;95785.31;4339156;32;20190;-65
2023/08/22 08:53:29;;;;;;;4.00;3.70;;;;;;;26.31;66.04;95788.78;4299910;32;20240;-65
2023/08/22 08:55:57;;;;;;;3.07;2.87;;;;;;;26.23;66.89;95797.25;4339039;32;20195;-64
2023/08/22 08:58:24;;;;;;;14.53;13.13;;;;;;;26.40;66.70;95798.50;4283258;32;20194;-64
2023/08/22 09:00:54;;;;;;;4.40;4.17;;;;;;;26.33;66.46;95797.34;4307847;32;20190;-65
2023/08/22 09:03:19;;;;;;;3.70;2.43;;;;;;;25.89;67.54;95802.16;4344103;32;20193;-65
2023/08/22 09:05:45;;;;;;;6.17;3.73;;;;;;;26.26;66.08;95796.50;4315204;32;20267;-65
2023/08/22 09:08:19;;;;;;;3.67;3.37;;;;;;;26.18;66.43;95792.97;4335395;32;20198;-65
2023/08/22 09:10:51;;;;;;;10.87;7.03;;;;;;;26.53;65.76;95795.06;4317684;32;20240;-65
2023/08/22 09:13:27;;;;;;;6.57;6.07;;;;;;;26.62;65.16;95800.13;4246154;32;20202;-65
2023/08/22 09:16:00;;;;;;;4.30;3.70;;;;;;;26.52;65.73;95796.25;4265971;32;20193;-65
2023/08/22 09:18:27;;;;;;;5.30;4.43;;;;;;;26.38;65.96;95796.19;4250201;33;20249;-65
2023/08/22 09:21:07;;;;;;;4.87;4.57;;;;;;;26.63;64.68;95797.03;4303842;32;20233;-65
2023/08/22 09:23:34;;;;;;;3.47;3.27;;;;;;;26.64;65.11;95801.31;4298120;32;20216;-65
2023/08/22 09:26:04;;;;;;;4.73;4.43;;;;;;;26.79;64.42;95798.66;4310734;32;20204;-65
2023/08/22 09:28:30;;;;;;;10.17;7.53;;;;;;;26.72;65.13;95793.94;4315652;32;20209;-65
2023/08/22 09:30:57;;;;;;;5.93;5.33;;;;;;;26.67;65.23;95797.03;4336692;32;20211;-65
2023/08/22 09:33:50;;;;;;;7.63;6.87;;;;;;;26.51;65.80;95789.22;4352297;32;20196;-65
2023/08/22 09:36:42;;;;;;;7.27;5.03;;;;;;;26.62;65.43;95794.69;4316535;32;20193;-65
2023/08/22 09:39:11;;;;;;;4.43;2.57;;;;;;;26.59;65.68;95784.59;4309069;32;20265;-65
2023/08/22 09:41:42;;;;;;;2.13;2.03;;;;;;;26.50;66.31;95795.06;4283564;32;20355;-65
2023/08/22 09:44:10;;;;;;;2.83;2.63;;;;;;;26.08;67.86;95795.63;4330286;32;20203;-65
2023/08/22 09:46:42;;;;;;;1.90;1.90;;;;;;;25.86;68.74;95797.47;4289059;32;20215;-65
2023/08/22 09:49:13;;;;;;;2.07;1.97;;;;;;;26.24;67.24;95787.94;4317735;32;20280;-65
2023/08/22 09:51:40;;;;;;;2.13;2.03;;;;;;;26.07;67.98;95788.63;4358924;32;20196;-65
2023/08/22 09:54:07;;;;;;;3.77;1.90;;;;;;;26.02;68.10;95795.22;4312744;32;20194;-65
2023/08/22 09:56:35;;;;;;;1.43;1.43;;;;;;;26.49;66.43;95791.56;4340033;32;20193;-65
2023/08/22 09:59:02;;;;;;;2.40;2.27;;;;;;;26.18;67.81;95786.75;4312463;32;20194;-65
2023/08/22 10:01:29;;;;;;;3.03;2.83;;;;;;;26.23;66.49;95789.88;4314642;32;20258;-65
2023/08/22 10:03:57;;;;;;;3.70;2.37;;;;;;;25.99;68.16;95790.53;4333394;32;20189;-65
2023/08/22 10:06:30;;;;;;;1.77;1.70;;;;;;;26.12;67.76;95780.91;4317955;32;20215;-65
2023/08/22 10:09:00;;;;;;;2.50;2.30;;;;;;;26.22;67.31;95787.53;4303635;32;20208;-65
2023/08/22 10:11:30;;;;;;;1.43;1.43;;;;;;;26.47;66.16;95780.28;4311802;32;20181;-65
2023/08/22 10:14:01;;;;;;;1.67;1.67;;;;;;;26.31;66.57;95785.28;4324303;32;20255;-65
2023/08/22 10:16:31;;;;;;;1.10;1.10;;;;;;;26.33;65.31;95775.56;4349412;32;20208;-65
2023/08/22 10:19:04;;;;;;;2.57;2.37;;;;;;;26.62;64.86;95778.34;4286956;32;20209;-65
2023/08/22 10:22:00;;;;;;;2.00;1.77;;;;;;;26.76;64.90;95772.19;4313313;32;20219;-65
2023/08/22 10:24:30;;;;;;;2.70;2.53;;;;;;;26.68;65.28;95765.94;4338489;32;20221;-65
2023/08/22 10:27:16;;;;;;;1.47;1.47;;;;;;;27.33;61.61;95762.13;4342804;32;20200;-65
2023/08/22 10:30:08;;;;;;;1.87;1.63;;;;;;;27.65;60.89;95768.31;4346279;32;20199;-66
2023/08/22 10:32:34;;;;;;;2.00;1.87;;;;;;;27.83;59.93;95771.03;4311301;32;20321;-65
2023/08/22 10:35:06;;;;;;;1.83;1.83;;;;;;;27.78;59.96;95765.19;4330121;32;20261;-65
2023/08/22 10:37:46;;;;;;;2.40;2.30;;;;;;;27.49;60.77;95770.66;4329539;32;20199;-65
2023/08/22 10:40:30;;;;;;;0.90;0.90;;;;;;;27.32;61.49;95771.47;4328211;32;20189;-66
2023/08/22 10:43:12;;;;;;;4.73;1.43;;;;;;;27.47;61.28;95755.84;4324022;32;20230;-66
2023/08/22 10:45:52;;;;;;;2.20;2.00;;;;;;;27.64;60.71;95766.75;4352055;32;20295;-66
2023/08/22 10:48:21;;;;;;;1.33;1.33;;;;;;;27.22;61.97;95756.69;4311456;32;20242;-61
2023/08/22 10:50:50;;;;;;;1.73;1.63;;;;;;;27.54;61.12;95756.63;4328075;32;20185;-63
2023/08/22 10:53:26;;;;;;;2.10;2.00;;;;;;;27.48;61.40;95762.87;4358389;32;20201;-60
2023/08/22 10:56:04;;;;;;;2.13;2.03;;;;;;;27.43;62.06;95766.00;4348125;32;20214;-60
2023/08/22 10:58:41;;;;;;;1.77;1.67;;;;;;;27.54;61.14;95767.53;4322612;32;20207;-60
2023/08/22 11:01:23;;;;;;;1.37;1.37;;;;;;;27.30;61.91;95760.94;4329044;32;20192;-60
2023/08/22 11:03:51;;;;;;;2.03;1.90;;;;;;;27.54;60.79;95766.75;4325067;32;20298;-60
2023/08/22 11:06:19;;;;;;;1.40;1.40;;;;;;;27.49;61.00;95761.69;4342711;32;20359;-60
2023/08/22 11:08:45;;;;;;;1.57;1.57;;;;;;;27.80;59.80;95760.12;4348824;32;20211;-60
2023/08/22 11:11:16;;;;;;;1.37;1.37;;;;;;;28.23;57.49;95750.66;4300529;32;20198;-60
2023/08/22 11:13:44;;;;;;;3.00;1.30;;;;;;;27.94;59.18;95760.06;4297632;32;20276;-60
2023/08/22 11:16:16;;;;;;;2.63;2.20;;;;;;;28.16;58.25;95758.06;4322665;32;20271;-60
2023/08/22 11:18:48;;;;;;;1.77;1.67;;;;;;;28.20;58.10;95742.47;4295252;32;20205;-60
2023/08/22 11:21:19;;;;;;;2.53;2.33;;;;;;;28.21;58.07;95749.50;4323778;32;20207;-60
2023/08/22 11:23:50;;;;;;;3.60;3.30;;;;;;;28.20;58.30;95743.25;4304557;32;20220;-60
2023/08/22 11:26:22;;;;;;;3.10;2.03;;;;;;;28.56;57.22;95743.84;4336255;32;20228;-60
2023/08/22 11:28:48;;;;;;;1.50;1.50;;;;;;;28.19;58.28;95751.81;4340005;32;20216;-60
2023/08/22 11:31:22;;;;;;;1.83;1.73;;;;;;;28.36;57.84;95746.28;4331041;32;20194;-65
2023/08/22 11:33:52;;;;;;;2.07;2.03;;;;;;;28.28;57.98;95746.72;4331676;32;20300;-66
2023/08/22 11:36:20;;;;;;;1.13;1.13;;;;;;;28.38;58.70;95745.91;4329042;33;20201;-66
2023/08/22 11:38:49;;;;;;;2.60;2.23;;;;;;;28.39;57.53;95742.78;4291376;33;21442;-65
2023/08/22 11:41:19;;;;;;;1.60;1.60;;;;;;;27.97;59.35;95749.16;4288042;32;20253;-60